Time;durP1;ratioP1;P1;durP2;ratioP2;P2;SDS_P1;SDS_P2;PMS_P1;PMS_P2;Temp;Humidity;BMP_temperature;BMP_pressure;BME280_temperature;BME280_humidity;BME280_pressure;Samples;Min_cycle;Max_cycle;Signal;HPM_P1;HPM_P2
2021/09/27 00:00:25;;;;;;;17.62;13.18;;;;;;;14.03;73.02;101367.70;1737625;80;20958;-83
2021/09/27 00:02:53;;;;;;;13.40;12.03;;;;;;;14.02;73.01;101357.32;1730922;82;20978;-83
2021/09/27 00:05:21;;;;;;;14.50;13.00;;;;;;;14.01;73.08;101360.80;1735844;82;21042;-83
2021/09/27 00:07:47;;;;;;;15.72;12.80;;;;;;;14.00;73.16;101357.79;1734978;82;21093;-83
2021/09/27 00:10:20;;;;;;;19.52;12.30;;;;;;;13.98;73.18;101357.82;1731501;80;21029;-83
2021/09/27 00:12:47;;;;;;;15.08;13.48;;;;;;;13.97;73.14;101357.84;1721160;82;21045;-83
2021/09/27 00:15:19;;;;;;;16.15;12.98;;;;;;;13.93;73.27;101346.64;1733090;82;20946;-83
2021/09/27 00:17:45;;;;;;;16.67;12.23;;;;;;;13.92;73.29;101348.83;1730771;80;21146;-84
2021/09/27 00:20:13;;;;;;;16.82;12.53;;;;;;;13.91;73.34;101353.61;1729572;82;21479;-84
2021/09/27 00:22:41;;;;;;;19.02;13.75;;;;;;;13.91;73.41;101357.52;1731566;82;21057;-84
2021/09/27 00:25:09;;;;;;;18.27;14.28;;;;;;;13.87;73.40;101343.70;1735607;80;21631;-84
2021/09/27 00:27:35;;;;;;;19.85;13.72;;;;;;;13.88;73.49;101349.33;1734735;82;21037;-84
2021/09/27 00:30:06;;;;;;;18.70;14.83;;;;;;;13.86;73.51;101345.03;1733562;81;21069;-83
2021/09/27 00:32:33;;;;;;;20.48;15.35;;;;;;;13.85;73.58;101336.38;1730900;82;21092;-83
2021/09/27 00:35:00;;;;;;;22.17;16.15;;;;;;;13.82;73.57;101339.03;1735041;82;21521;-84
2021/09/27 00:37:26;;;;;;;18.52;16.07;;;;;;;13.81;73.66;101339.92;1733998;82;21041;-84
2021/09/27 00:39:53;;;;;;;22.10;16.20;;;;;;;13.79;73.68;101335.19;1735003;81;21083;-84
2021/09/27 00:42:19;;;;;;;22.98;17.27;;;;;;;13.76;73.77;101332.64;1731094;82;21044;-84
2021/09/27 00:44:45;;;;;;;21.25;16.80;;;;;;;13.77;73.82;101327.86;1728203;82;21616;-83
2021/09/27 00:47:12;;;;;;;28.30;16.32;;;;;;;13.78;73.88;101330.88;1729846;82;20988;-83
2021/09/27 00:49:38;;;;;;;21.17;16.60;;;;;;;13.78;73.90;101329.58;1737536;80;21038;-84
2021/09/27 00:52:05;;;;;;;22.62;17.05;;;;;;;13.75;73.98;101329.63;1728645;82;20997;-84
2021/09/27 00:54:34;;;;;;;;;;;;;;;13.76;74.00;101329.19;1740760;80;21025;-84
2021/09/27 00:57:13;;;;;;;21.60;15.95;;;;;;;13.75;74.40;101326.17;1737029;82;20122;-84
2021/09/27 00:59:43;;;;;;;22.60;17.23;;;;;;;13.75;74.12;101329.63;1740007;82;20903;-84
2021/09/27 01:02:11;;;;;;;28.17;17.50;;;;;;;13.76;74.18;101327.89;1733641;80;20879;-84
2021/09/27 01:04:38;;;;;;;22.20;16.97;;;;;;;13.75;74.19;101325.73;1737027;82;20916;-84
2021/09/27 01:07:21;;;;;;;20.17;17.05;;;;;;;13.76;74.24;101324.84;1740110;82;21390;-84
2021/09/27 01:10:31;;;;;;;24.20;17.12;;;;;;;13.76;74.28;101325.28;1738962;80;21442;-84
2021/09/27 01:13:24;;;;;;;20.85;16.15;;;;;;;13.75;74.30;101325.73;1736715;82;20947;-84
2021/09/27 01:16:10;;;;;;;27.07;16.82;;;;;;;13.75;74.38;101321.83;1721004;82;21420;-84
2021/09/27 01:18:59;;;;;;;26.57;16.70;;;;;;;13.76;74.41;101326.14;1724660;81;21506;-84
2021/09/27 01:21:45;;;;;;;22.85;17.60;;;;;;;13.75;74.43;101327.03;1738805;82;20898;-84
2021/09/27 01:24:43;;;;;;;19.65;16.95;;;;;;;13.74;74.48;101325.31;1686164;82;20930;-84
2021/09/27 01:27:46;;;;;;;20.40;15.65;;;;;;;13.74;74.54;101333.55;1737268;80;21517;-84
2021/09/27 01:30:30;;;;;;;23.47;15.58;;;;;;;13.74;74.55;101334.85;1723503;82;21470;-84
2021/09/27 01:33:01;;;;;;;26.60;17.25;;;;;;;13.73;74.63;101332.70;1717649;81;20978;-83
2021/09/27 01:35:51;;;;;;;20.32;15.93;;;;;;;13.72;74.64;101331.42;1737179;80;21565;-83
2021/09/27 01:38:34;;;;;;;21.62;15.43;;;;;;;13.70;74.67;101330.15;1737168;82;21117;-83
2021/09/27 01:41:24;;;;;;;20.88;15.93;;;;;;;13.71;74.74;101337.50;1736826;80;21619;-84
2021/09/27 01:44:22;;;;;;;23.62;16.10;;;;;;;13.69;74.69;101337.97;1726534;82;21593;-84
2021/09/27 01:47:09;;;;;;;23.57;15.13;;;;;;;13.65;74.76;101337.16;1731568;80;21533;-84
2021/09/27 01:49:59;;;;;;;16.80;15.03;;;;;;;13.63;74.83;101335.03;1737872;82;21104;-84
2021/09/27 01:52:57;;;;;;;17.65;14.98;;;;;;;13.62;74.89;101335.91;1725233;80;21612;-84
2021/09/27 01:55:50;;;;;;;20.20;15.10;;;;;;;13.62;74.94;101337.66;1729366;80;21473;-84
2021/09/27 01:58:51;;;;;;;23.52;15.15;;;;;;;13.62;74.94;101336.36;1738393;82;21617;-84
2021/09/27 02:01:41;;;;;;;19.02;14.38;;;;;;;13.58;75.00;101337.71;1711646;82;21064;-84
2021/09/27 02:04:16;;;;;;;21.65;15.08;;;;;;;13.56;75.02;101336.02;1735369;80;21506;-84
2021/09/27 02:06:50;;;;;;;23.00;15.68;;;;;;;13.53;75.04;101331.73;1736336;82;21058;-84
2021/09/27 02:09:40;;;;;;;18.00;15.03;;;;;;;13.51;75.12;101324.87;1731038;80;21562;-84
2021/09/27 02:12:12;;;;;;;17.37;14.65;;;;;;;13.51;75.18;101318.38;1735491;82;21844;-84
2021/09/27 02:14:49;;;;;;;19.60;14.98;;;;;;;13.50;75.17;101315.37;1728394;80;21513;-84
2021/09/27 02:18:05;;;;;;;29.12;16.07;;;;;;;13.49;75.20;101318.84;1731081;82;20902;-84
2021/09/27 02:20:46;;;;;;;22.20;15.78;;;;;;;13.48;75.22;101319.73;1724128;80;21557;-84
2021/09/27 02:23:26;;;;;;;20.55;16.30;;;;;;;13.46;75.26;101328.84;1739766;81;20879;-84
2021/09/27 02:25:54;;;;;;;24.43;17.17;;;;;;;13.43;75.32;101318.51;1731096;82;21597;-84
2021/09/27 02:28:23;;;;;;;19.37;14.50;;;;;;;13.42;75.39;101320.69;1721892;82;21688;-84
2021/09/27 02:31:10;;;;;;;21.05;15.78;;;;;;;13.41;75.42;101321.57;1711609;82;21124;-84
2021/09/27 02:33:47;;;;;;;18.95;14.58;;;;;;;13.41;75.43;101320.27;1725691;82;21478;-83
2021/09/27 02:36:37;;;;;;;23.30;16.42;;;;;;;13.38;75.41;101326.81;1735813;80;21054;-83
2021/09/27 02:39:18;;;;;;;25.32;15.75;;;;;;;13.36;75.51;101328.58;1737118;82;21486;-83
2021/09/27 02:41:59;;;;;;;21.77;15.85;;;;;;;13.37;75.58;101330.30;1736014;82;21045;-84
2021/09/27 02:44:33;;;;;;;20.43;16.15;;;;;;;13.36;75.58;101328.58;1737119;80;21629;-84
2021/09/27 02:47:03;;;;;;;27.27;16.95;;;;;;;13.36;75.61;101330.32;1737623;82;21056;-84
2021/09/27 02:49:34;;;;;;;20.05;15.28;;;;;;;13.34;75.61;101328.19;1723327;82;20982;-84
2021/09/27 02:52:03;;;;;;;18.82;15.20;;;;;;;13.32;75.58;101323.45;1699019;82;21645;-84
2021/09/27 02:54:46;;;;;;;18.92;15.50;;;;;;;13.28;75.63;101325.25;1728295;82;21466;-84
2021/09/27 02:57:42;;;;;;;17.07;15.08;;;;;;;13.23;75.60;101321.42;1700545;82;206445;-84
2021/09/27 03:00:16;;;;;;;22.15;16.05;;;;;;;13.19;75.65;101324.09;1652068;84;20925;-84
2021/09/27 03:03:29;;;;;;;20.25;15.83;;;;;;;13.17;75.79;101321.95;1657964;85;20929;-84
2021/09/27 03:06:18;;;;;;;17.82;15.78;;;;;;;13.17;75.86;101320.22;1661079;85;20938;-83
2021/09/27 03:09:05;;;;;;;20.72;15.50;;;;;;;13.15;75.87;101316.75;1656320;84;21561;-83
2021/09/27 03:11:53;;;;;;;;;;;;;;;13.14;75.88;101316.33;1658970;84;21913;-84
2021/09/27 03:14:46;;;;;;;18.32;16.17;;;;;;;13.09;76.04;101314.25;1662258;85;20519;-84
2021/09/27 03:17:42;;;;;;;19.62;15.25;;;;;;;13.06;75.93;101314.29;1632292;85;21450;-84
2021/09/27 03:20:34;;;;;;;21.52;15.90;;;;;;;13.02;75.99;101317.81;1653368;84;20949;-84
2021/09/27 03:23:34;;;;;;;23.90;18.20;;;;;;;13.02;76.07;101307.87;1645192;85;22533;-84
2021/09/27 03:26:38;;;;;;;21.93;16.25;;;;;;;13.03;76.16;101317.38;1654744;85;20978;-84
2021/09/27 03:29:27;;;;;;;24.32;15.53;;;;;;;13.03;76.13;101314.77;1653744;84;21121;-84
2021/09/27 03:32:17;;;;;;;24.82;15.85;;;;;;;13.01;76.16;101312.20;1646830;85;21091;-84
2021/09/27 03:35:13;;;;;;;20.52;15.72;;;;;;;13.00;76.26;101310.48;1639996;86;21480;-84
2021/09/27 03:38:10;;;;;;;21.23;15.78;;;;;;;12.99;76.21;101316.59;1628235;87;21594;-84
2021/09/27 03:41:14;;;;;;;24.77;15.60;;;;;;;12.97;76.19;101303.22;1626955;86;21601;-84
2021/09/27 03:44:04;;;;;;;24.63;15.25;;;;;;;12.92;76.26;101305.44;1658505;83;21637;-84
2021/09/27 03:47:05;;;;;;;17.55;15.25;;;;;;;12.90;76.35;101302.01;1683436;83;21093;-84
2021/09/27 03:49:43;;;;;;;17.35;14.35;;;;;;;12.89;76.33;101301.59;1685212;83;20983;-84
2021/09/27 03:52:15;;;;;;;16.90;14.43;;;;;;;12.87;76.42;101303.79;1692012;82;21061;-84
2021/09/27 03:55:02;;;;;;;18.40;14.45;;;;;;;12.85;76.39;101295.16;1685317;84;20985;-84
2021/09/27 03:57:43;;;;;;;22.85;16.57;;;;;;;12.86;76.53;101292.98;1688637;84;20979;-84
2021/09/27 04:00:14;;;;;;;18.95;14.55;;;;;;;12.88;76.53;101295.13;1682118;84;21024;-84
2021/09/27 04:02:53;;;;;;;23.12;15.28;;;;;;;12.87;76.55;101286.92;1697519;82;21038;-84
2021/09/27 04:05:25;;;;;;;20.97;14.83;;;;;;;12.87;76.56;101289.52;1696951;84;21061;-83
2021/09/27 04:08:19;;;;;;;21.05;14.47;;;;;;;12.86;76.58;101288.66;1683418;84;21069;-83
2021/09/27 04:11:04;;;;;;;19.55;13.80;;;;;;;12.86;76.65;101286.06;1693172;83;21077;-83
2021/09/27 04:13:56;;;;;;;20.92;14.43;;;;;;;12.85;76.65;101288.67;1692959;84;21109;-83
2021/09/27 04:16:37;;;;;;;16.73;14.03;;;;;;;12.83;76.67;101287.41;1681921;83;20936;-83
2021/09/27 04:19:26;;;;;;;19.35;13.98;;;;;;;12.84;76.74;101279.17;1687434;83;20954;-83
2021/09/27 04:22:10;;;;;;;23.73;14.45;;;;;;;12.84;76.82;101277.44;1673441;83;20879;-83
2021/09/27 04:25:08;;;;;;;26.82;14.25;;;;;;;12.86;76.85;101278.27;1694299;84;20934;-83
2021/09/27 04:27:43;;;;;;;17.65;13.38;;;;;;;12.87;76.86;101280.42;1699101;83;20890;-83
2021/09/27 04:30:29;;;;;;;18.67;13.90;;;;;;;12.87;76.87;101283.02;1680685;84;20882;-84
2021/09/27 04:33:18;;;;;;;18.65;13.65;;;;;;;12.86;76.86;101283.46;1660470;84;20938;-85
2021/09/27 04:36:07;;;;;;;20.37;13.05;;;;;;;12.87;76.93;101284.32;1657536;84;20938;-85
2021/09/27 04:38:39;;;;;;;18.92;12.53;;;;;;;12.87;76.92;101285.62;1684909;84;20954;-85
2021/09/27 04:41:30;;;;;;;22.60;13.55;;;;;;;12.86;76.96;101283.46;1684738;83;20912;-84
2021/09/27 04:44:20;;;;;;;15.93;12.20;;;;;;;12.86;77.00;101282.16;1696098;84;20934;-83
2021/09/27 04:47:04;;;;;;;20.17;13.38;;;;;;;12.87;77.01;101285.18;1698990;84;20954;-83
2021/09/27 04:49:45;;;;;;;;;;;;;;;12.87;77.05;101282.58;1660191;85;20881;-83
2021/09/27 04:52:19;;;;;;;19.57;12.50;;;;;;;12.87;77.31;101281.28;1700471;81;20535;-83
2021/09/27 04:55:15;;;;;;;17.75;12.43;;;;;;;12.87;77.09;101280.42;1704944;83;20968;-83
2021/09/27 04:57:58;;;;;;;17.75;13.13;;;;;;;12.87;77.12;101285.62;1681555;83;21070;-83
2021/09/27 05:00:35;;;;;;;18.50;11.90;;;;;;;12.87;77.21;101282.58;1664078;83;21119;-83
2021/09/27 05:03:45;;;;;;;18.05;12.68;;;;;;;12.89;77.24;101286.02;1692550;83;21068;-83
2021/09/27 05:06:47;;;;;;;22.87;12.37;;;;;;;12.91;77.23;101273.87;1680154;84;21125;-83
2021/09/27 05:09:35;;;;;;;21.23;12.80;;;;;;;12.94;77.27;101279.45;1695111;83;21414;-83
2021/09/27 05:12:28;;;;;;;17.20;12.70;;;;;;;12.96;77.29;101282.89;1686466;84;21052;-83
2021/09/27 05:15:21;;;;;;;19.67;12.82;;;;;;;12.97;77.34;101276.81;1686681;84;21125;-83
2021/09/27 05:18:12;;;;;;;20.57;12.20;;;;;;;13.02;77.34;101281.91;1676740;84;21061;-83
2021/09/27 05:20:59;;;;;;;18.40;12.23;;;;;;;13.06;77.33;101283.58;1691079;83;21565;-83
2021/09/27 05:24:15;;;;;;;15.20;12.63;;;;;;;13.08;77.36;101281.37;1685754;84;21042;-83
2021/09/27 05:26:50;;;;;;;22.45;12.37;;;;;;;13.14;77.46;101288.21;1673646;84;21065;-83
2021/09/27 05:29:33;;;;;;;16.73;12.20;;;;;;;13.19;77.47;101286.43;1674561;83;21062;-83
2021/09/27 05:32:17;;;;;;;13.55;11.68;;;;;;;13.22;77.43;101292.44;1688179;82;21129;-83
2021/09/27 05:35:04;;;;;;;20.20;12.43;;;;;;;13.25;77.48;101285.89;1701625;82;21044;-83
2021/09/27 05:38:13;;;;;;;13.90;11.15;;;;;;;13.30;77.50;101284.96;1689537;83;21111;-83
2021/09/27 05:41:09;;;;;;;14.93;10.68;;;;;;;13.34;77.53;101290.52;1676290;83;21140;-83
2021/09/27 05:44:05;;;;;;;17.77;11.68;;;;;;;13.39;77.54;101295.20;1685450;83;21069;-83
2021/09/27 05:46:58;;;;;;;19.75;12.78;;;;;;;13.44;77.56;101292.95;1642096;85;21128;-83
2021/09/27 05:50:04;;;;;;;22.67;15.48;;;;;;;13.48;77.51;101293.75;1654728;84;21141;-83
2021/09/27 05:53:26;;;;;;;24.20;13.13;;;;;;;13.50;77.53;101288.09;1644806;86;21132;-83
2021/09/27 05:56:18;;;;;;;20.10;12.50;;;;;;;13.53;77.57;101286.26;1556492;89;21708;-83
2021/09/27 05:58:54;;;;;;;18.45;12.53;;;;;;;13.56;77.63;101287.95;1585831;88;21110;-83
2021/09/27 06:01:53;;;;;;;16.35;10.43;;;;;;;13.58;77.63;101284.44;1597891;88;21055;-83
2021/09/27 06:05:03;;;;;;;19.73;12.25;;;;;;;13.62;77.64;101280.05;1596579;88;21007;-83
2021/09/27 06:07:43;;;;;;;15.53;10.43;;;;;;;13.66;77.62;101288.64;1564495;90;20975;-83
2021/09/27 06:10:21;;;;;;;23.40;11.10;;;;;;;13.71;77.72;101295.92;1533884;88;21016;-83
2021/09/27 06:13:17;;;;;;;17.55;10.80;;;;;;;13.76;77.70;101295.39;1578660;88;20972;-83
2021/09/27 06:16:12;;;;;;;15.80;9.95;;;;;;;13.80;77.72;101295.75;1572546;89;21048;-83
2021/09/27 06:19:19;;;;;;;15.20;9.45;;;;;;;13.85;77.76;101290.03;1558821;89;21074;-83
2021/09/27 06:22:27;;;;;;;16.77;9.48;;;;;;;13.94;77.77;101293.75;1598905;88;20992;-83
2021/09/27 06:25:02;;;;;;;11.95;9.48;;;;;;;14.01;77.78;101291.89;1608892;87;20936;-83
2021/09/27 06:27:56;;;;;;;18.85;9.23;;;;;;;14.07;77.78;101296.50;1635057;85;20926;-83
2021/09/27 06:30:28;;;;;;;;;;;;;;;14.16;77.80;101301.53;1648081;85;20992;-83
2021/09/27 06:33:24;;;;;;;13.80;9.10;;;;;;;14.24;77.95;101298.78;1648774;85;20136;-83
2021/09/27 06:35:53;;;;;;;14.80;8.73;;;;;;;14.28;77.76;101299.13;1638601;86;21108;-83
2021/09/27 06:38:31;;;;;;;13.18;8.48;;;;;;;14.36;77.83;101306.78;1622134;85;21132;-83
2021/09/27 06:40:58;;;;;;;15.85;8.53;;;;;;;14.39;77.78;101303.67;1640853;85;21068;-84
2021/09/27 06:45:51;;;;;;;16.30;8.30;;;;;;;14.50;77.81;101307.38;1827963;78;22809;-81
2021/09/27 06:48:19;;;;;;;15.98;8.60;;;;;;;14.51;77.82;101306.50;1777882;79;21041;-80
2021/09/27 06:50:46;;;;;;;12.03;8.75;;;;;;;14.54;77.82;101304.69;1781678;79;20974;-80
2021/09/27 06:53:13;;;;;;;12.68;7.47;;;;;;;14.60;77.89;101317.98;1770676;79;20933;-80
2021/09/27 06:55:52;;;;;;;17.32;8.05;;;;;;;14.66;77.89;101320.90;1772708;79;21419;-80
2021/09/27 06:58:18;;;;;;;;;;;;;;;14.72;77.88;101312.52;1776577;79;20977;-80
2021/09/27 07:00:44;;;;;;;19.57;7.20;;;;;;;14.82;77.98;101311.87;1771565;79;20243;-80
2021/09/27 07:03:11;;;;;;;15.65;7.37;;;;;;;14.89;77.91;101313.45;1748539;79;20989;-80
2021/09/27 07:05:37;;;;;;;14.43;7.65;;;;;;;14.98;77.87;101311.08;1753474;80;21103;-80
2021/09/27 07:08:04;;;;;;;11.83;7.70;;;;;;;15.07;77.89;101310.42;1742077;80;21055;-80
2021/09/27 07:10:30;;;;;;;15.18;7.08;;;;;;;15.17;77.90;101310.58;1745560;80;21045;-80
2021/09/27 07:12:57;;;;;;;15.05;7.35;;;;;;;15.29;77.88;101307.28;1742752;80;21053;-80
2021/09/27 07:15:24;;;;;;;13.98;7.17;;;;;;;15.40;77.85;101313.08;1743269;80;21059;-81
2021/09/27 07:17:51;;;;;;;15.50;7.83;;;;;;;15.47;77.83;101313.34;1749656;80;20985;-81
2021/09/27 07:20:22;;;;;;;15.48;7.67;;;;;;;15.57;77.82;101314.00;1752068;80;21335;-81
2021/09/27 07:22:50;;;;;;;13.08;6.53;;;;;;;15.65;77.78;101313.33;1740492;80;21108;-81
2021/09/27 07:25:17;;;;;;;15.15;6.47;;;;;;;15.73;77.79;101314.84;1754926;80;21323;-81
2021/09/27 07:27:44;;;;;;;;;;;;;;;15.84;77.78;101311.50;1734756;82;21265;-81
2021/09/27 07:30:12;;;;;;;13.35;6.08;;;;;;;15.95;77.73;101307.75;1738791;80;20146;-81
2021/09/27 07:32:40;;;;;;;9.30;5.90;;;;;;;16.09;77.86;101306.94;1737749;80;21106;-81
2021/09/27 07:35:08;;;;;;;7.92;6.03;;;;;;;16.23;77.78;101308.23;1705052;82;21050;-81
2021/09/27 07:37:37;;;;;;;9.60;5.70;;;;;;;16.33;77.73;101301.00;1737175;80;21105;-81
2021/09/27 07:40:04;;;;;;;11.00;5.95;;;;;;;16.42;77.61;101294.66;1740439;80;21127;-81
2021/09/27 07:42:30;;;;;;;7.97;5.30;;;;;;;16.51;77.63;101300.91;1736156;80;21059;-81
2021/09/27 07:44:57;;;;;;;11.65;5.28;;;;;;;16.60;77.65;101309.78;1735581;80;21502;-81
2021/09/27 07:47:29;;;;;;;15.10;5.65;;;;;;;16.69;77.61;101297.76;1705774;79;411488;-81
2021/09/27 07:49:55;;;;;;;8.53;4.33;;;;;;;16.81;77.59;101303.06;1691163;84;21129;-81
2021/09/27 07:52:22;;;;;;;9.77;4.83;;;;;;;16.91;77.54;101297.10;1703538;84;21053;-81
2021/09/27 07:54:48;;;;;;;9.60;4.50;;;;;;;17.00;77.51;101304.20;1701654;84;21113;-81
2021/09/27 07:57:15;;;;;;;9.10;5.13;;;;;;;17.06;77.47;101294.86;1702290;84;21066;-81
2021/09/27 07:59:41;;;;;;;11.90;5.03;;;;;;;17.16;77.49;101304.54;1705435;84;21082;-81
2021/09/27 08:02:18;;;;;;;8.28;5.22;;;;;;;17.22;77.41;101300.42;1700455;84;20879;-81
2021/09/27 08:04:41;;;;;;;9.03;4.90;;;;;;;17.22;77.24;101303.03;1689724;83;20974;-81
2021/09/27 08:07:08;;;;;;;10.70;5.08;;;;;;;17.18;77.17;101302.73;1696734;84;20962;-81
2021/09/27 08:09:34;;;;;;;9.40;5.08;;;;;;;17.11;77.11;101300.80;1702989;82;20934;-81
2021/09/27 08:12:00;;;;;;;12.78;5.28;;;;;;;17.09;77.12;101298.69;1705475;84;20954;-81
2021/09/27 08:14:27;;;;;;;8.13;4.92;;;;;;;17.02;77.03;101299.78;1699172;84;20958;-81
2021/09/27 08:16:53;;;;;;;11.20;4.33;;;;;;;16.99;77.11;101297.72;1706797;81;414632;-81
2021/09/27 08:19:24;;;;;;;11.12;5.15;;;;;;;16.98;77.09;101299.48;1736844;81;20952;-80
2021/09/27 08:21:48;;;;;;;6.22;4.92;;;;;;;16.95;76.98;101298.27;1739610;81;20940;-80
2021/09/27 08:24:15;;;;;;;7.42;4.87;;;;;;;16.93;76.96;101298.77;1730517;81;20983;-80
2021/09/27 08:26:42;;;;;;;11.08;5.10;;;;;;;16.91;76.93;101292.73;1722401;82;20928;-81
2021/09/27 08:29:09;;;;;;;7.08;4.87;;;;;;;16.97;77.02;101299.52;1739910;81;20917;-81
2021/09/27 08:31:35;;;;;;;9.68;4.97;;;;;;;17.05;76.93;101296.22;1727984;82;20901;-80
2021/09/27 08:34:02;;;;;;;11.18;5.47;;;;;;;17.19;77.07;101301.37;1738152;81;20948;-80
2021/09/27 08:36:28;;;;;;;11.80;5.25;;;;;;;17.35;76.83;101296.50;1734081;81;20904;-81
2021/09/27 08:38:56;;;;;;;11.40;5.12;;;;;;;17.40;76.74;101298.97;1745202;79;26376;-80
2021/09/27 08:41:45;;;;;;;8.68;4.78;;;;;;;17.45;76.70;101297.05;1728036;81;20870;-80
2021/09/27 08:45:02;;;;;;;7.42;4.50;;;;;;;17.46;76.60;101299.62;1728872;81;20897;-80
2021/09/27 08:47:58;;;;;;;14.50;4.83;;;;;;;17.45;76.48;101295.75;1597693;88;20978;-80
2021/09/27 08:50:38;;;;;;;12.13;5.22;;;;;;;17.38;76.40;101297.71;1641252;85;20924;-80
2021/09/27 08:53:10;;;;;;;10.18;4.78;;;;;;;17.39;76.41;101298.56;1640124;85;20938;-80
2021/09/27 08:55:37;;;;;;;7.58;4.87;;;;;;;17.40;76.41;101298.97;1604328;85;20981;-80
2021/09/27 08:58:39;;;;;;;10.15;5.47;;;;;;;17.43;76.38;101305.41;1647841;85;20936;-81
2021/09/27 09:01:22;;;;;;;16.27;5.42;;;;;;;17.48;76.38;101304.80;1622644;86;20947;-80
2021/09/27 09:04:03;;;;;;;8.95;5.03;;;;;;;17.50;76.20;101309.07;1624857;86;20979;-79
2021/09/27 09:06:40;;;;;;;9.35;5.12;;;;;;;17.50;76.07;101305.15;1605876;86;410662;-80
2021/09/27 09:09:22;;;;;;;10.13;5.53;;;;;;;17.51;76.11;101306.86;1623630;86;20983;-80
2021/09/27 09:12:18;;;;;;;8.85;5.58;;;;;;;17.57;76.11;101305.80;1623112;86;20960;-80
2021/09/27 09:14:56;;;;;;;8.33;5.25;;;;;;;17.62;76.07;101297.80;1623463;87;20962;-80
2021/09/27 09:17:39;;;;;;;8.93;5.67;;;;;;;17.71;76.01;101297.03;1663887;81;20877;-80
2021/09/27 09:20:16;;;;;;;7.12;4.50;;;;;;;17.75;75.83;101291.23;1706434;81;20977;-80
2021/09/27 09:22:47;;;;;;;11.38;4.92;;;;;;;17.79;75.85;101294.14;1696377;82;20929;-80
2021/09/27 09:25:34;;;;;;;8.55;5.15;;;;;;;17.87;75.83;101292.12;1701571;82;20934;-80
2021/09/27 09:28:07;;;;;;;12.13;5.12;;;;;;;17.95;75.83;101286.61;1691481;84;20901;-80
2021/09/27 09:30:47;;;;;;;10.72;5.40;;;;;;;18.02;75.68;101292.88;1692701;84;20871;-80
2021/09/27 09:33:42;;;;;;;11.55;5.45;;;;;;;18.04;75.63;101288.45;1695803;82;20918;-80
2021/09/27 09:36:13;;;;;;;12.37;6.17;;;;;;;18.11;75.58;101286.46;1702239;82;20949;-80
2021/09/27 09:38:41;;;;;;;10.45;5.45;;;;;;;18.22;75.57;101286.04;1695217;82;20948;-80
2021/09/27 09:41:08;;;;;;;8.15;5.50;;;;;;;18.34;75.51;101279.89;1681634;83;20862;-80
2021/09/27 09:43:42;;;;;;;14.15;5.62;;;;;;;18.43;75.47;101274.77;1697813;82;20946;-80
2021/09/27 09:46:30;;;;;;;8.43;5.30;;;;;;;18.48;75.33;101269.75;1703416;81;20925;-80
2021/09/27 09:49:10;;;;;;;8.80;5.67;;;;;;;18.59;75.32;101267.18;1717465;81;20950;-80
2021/09/27 09:51:46;;;;;;;13.50;5.55;;;;;;;18.68;75.25;101259.00;1726523;81;20878;-80
2021/09/27 09:54:25;;;;;;;10.03;5.37;;;;;;;18.76;75.23;101256.90;1714082;81;20934;-81
2021/09/27 09:57:20;;;;;;;10.53;5.67;;;;;;;18.84;75.14;101258.76;1723912;81;20941;-81
2021/09/27 10:00:07;;;;;;;10.93;5.83;;;;;;;18.91;74.98;101245.80;1710982;81;20976;-80
2021/09/27 10:02:41;;;;;;;12.18;5.45;;;;;;;18.93;74.84;101243.13;1685071;82;20874;-79
2021/09/27 10:05:36;;;;;;;9.18;5.95;;;;;;;18.99;74.96;101239.80;1677774;82;21816;-80
2021/09/27 10:08:12;;;;;;;11.53;5.33;;;;;;;19.10;74.88;101231.49;1706611;81;20938;-80
2021/09/27 10:10:42;;;;;;;7.35;5.65;;;;;;;19.21;74.79;101232.36;1717414;81;20941;-80
2021/09/27 10:13:41;;;;;;;11.80;5.40;;;;;;;19.30;74.61;101238.04;1709775;81;20937;-80
2021/09/27 10:16:18;;;;;;;12.50;6.70;;;;;;;19.34;74.56;101230.44;1709094;81;20917;-80
2021/09/27 10:18:46;;;;;;;7.75;5.80;;;;;;;19.40;74.39;101241.98;1720734;81;20941;-80
2021/09/27 10:21:31;;;;;;;;;;;;;;;19.45;74.42;101243.09;1720848;81;21375;-80
2021/09/27 10:24:23;;;;;;;9.58;6.05;;;;;;;19.53;73.93;101241.48;1717001;81;20109;-80
2021/09/27 10:26:53;;;;;;;8.10;5.92;;;;;;;19.63;74.30;101238.41;1713449;81;20868;-80
2021/09/27 10:29:28;;;;;;;10.90;5.60;;;;;;;19.83;74.34;101238.81;1704888;82;20920;-80
2021/09/27 10:32:00;;;;;;;6.50;5.85;;;;;;;19.99;74.16;101229.33;1706699;81;20897;-80
2021/09/27 10:34:31;;;;;;;10.20;6.20;;;;;;;20.16;74.01;101229.87;1713835;81;20889;-80
2021/09/27 10:37:05;;;;;;;6.00;5.37;;;;;;;20.28;74.00;101221.41;1714550;82;21475;-80
2021/09/27 10:39:31;;;;;;;9.43;6.50;;;;;;;20.40;73.83;101228.75;1699925;82;20881;-80
2021/09/27 10:42:11;;;;;;;11.67;6.50;;;;;;;20.46;73.46;101226.30;1705516;83;20901;-80
2021/09/27 10:44:43;;;;;;;14.98;6.62;;;;;;;20.43;73.46;101228.60;1711845;82;20858;-80
2021/09/27 10:47:20;;;;;;;7.03;6.30;;;;;;;20.46;73.52;101227.14;1693136;83;20929;-81
2021/09/27 10:50:11;;;;;;;10.72;5.70;;;;;;;20.48;73.37;101230.55;1685826;84;20929;-80
2021/09/27 10:52:54;;;;;;;8.43;5.75;;;;;;;20.53;73.34;101225.08;1696437;82;20944;-80
2021/09/27 10:56:16;;;;;;;8.20;6.03;;;;;;;20.60;73.22;101226.95;1702621;82;21402;-80
2021/09/27 10:59:02;;;;;;;15.58;6.50;;;;;;;20.63;73.08;101230.28;1697568;82;20952;-80
2021/09/27 11:01:51;;;;;;;8.35;5.87;;;;;;;20.66;72.87;101224.03;1696319;82;20912;-80
2021/09/27 11:04:24;;;;;;;7.05;6.22;;;;;;;20.66;72.84;101229.29;1696459;82;20985;-79
2021/09/27 11:06:59;;;;;;;8.35;5.80;;;;;;;20.69;72.77;101222.57;1672877;83;21101;-80
2021/09/27 11:09:31;;;;;;;11.10;6.12;;;;;;;20.72;72.72;101217.17;1694538;82;21052;-80
2021/09/27 11:12:08;;;;;;;10.80;6.00;;;;;;;20.74;72.64;101218.80;1698540;82;21016;-80
2021/09/27 11:14:43;;;;;;;7.15;5.65;;;;;;;20.77;72.52;101225.69;1685113;82;21568;-80
2021/09/27 11:17:20;;;;;;;12.33;6.22;;;;;;;20.76;72.35;101210.84;1700390;82;21017;-80
2021/09/27 11:20:08;;;;;;;9.50;5.97;;;;;;;20.79;72.30;101212.00;1693821;82;21521;-80
2021/09/27 11:22:39;;;;;;;11.78;6.58;;;;;;;20.80;72.16;101210.58;1695967;82;20959;-80
2021/09/27 11:25:14;;;;;;;8.88;5.97;;;;;;;20.79;72.01;101215.95;1699180;82;20960;-80
2021/09/27 11:27:41;;;;;;;8.38;6.47;;;;;;;20.78;71.95;101217.72;1697901;82;20877;-81
2021/09/27 11:30:24;;;;;;;6.53;5.60;;;;;;;20.81;71.87;101207.48;1700563;83;20878;-81
2021/09/27 11:32:57;;;;;;;7.28;5.80;;;;;;;20.80;71.72;101209.73;1706686;82;21372;-80
2021/09/27 11:35:42;;;;;;;7.80;5.80;;;;;;;20.80;71.64;101213.67;1678047;82;21429;-80
2021/09/27 11:38:37;;;;;;;14.28;6.83;;;;;;;20.84;71.65;101219.17;1697956;82;20882;-80
2021/09/27 11:41:18;;;;;;;8.98;6.03;;;;;;;20.87;71.33;101211.59;1698159;82;20898;-80
2021/09/27 11:44:15;;;;;;;11.45;6.10;;;;;;;20.85;71.15;101210.36;1710490;82;21434;-80
2021/09/27 11:47:03;;;;;;;8.20;5.80;;;;;;;20.85;71.10;101212.13;1712013;82;20911;-80
2021/09/27 11:50:10;;;;;;;7.08;5.50;;;;;;;20.87;71.01;101201.94;1700572;82;21386;-80
2021/09/27 11:52:58;;;;;;;7.08;6.35;;;;;;;20.94;70.96;101205.11;1717652;82;20953;-80
2021/09/27 11:55:45;;;;;;;6.97;6.28;;;;;;;20.98;70.77;101204.03;1627231;84;21447;-80
2021/09/27 11:58:23;;;;;;;8.88;6.37;;;;;;;20.95;70.57;101204.19;1687953;84;21365;-80
2021/09/27 12:01:00;;;;;;;7.45;5.50;;;;;;;20.89;70.38;101201.86;1694153;82;21407;-80
2021/09/27 12:03:46;;;;;;;6.75;5.90;;;;;;;20.81;70.33;101202.23;1697330;82;20934;-80
2021/09/27 12:06:23;;;;;;;9.63;5.53;;;;;;;20.73;70.25;101197.38;1695493;82;21379;-80
2021/09/27 12:08:54;;;;;;;9.00;6.30;;;;;;;20.71;70.19;101202.33;1700623;82;21371;-80
2021/09/27 12:11:21;;;;;;;10.43;5.83;;;;;;;20.71;70.15;101197.06;1696880;82;21437;-80
2021/09/27 12:13:55;;;;;;;8.73;6.43;;;;;;;20.72;70.13;101194.36;1712761;82;20858;-80
2021/09/27 12:16:30;;;;;;;6.47;5.78;;;;;;;20.73;70.01;101195.22;1696413;81;21427;-80
2021/09/27 12:19:25;;;;;;;9.68;5.50;;;;;;;20.75;70.00;101188.95;1689913;84;21371;-81